Time;durP1;ratioP1;P1;durP2;ratioP2;P2;SDS_P1;SDS_P2;PMS_P1;PMS_P2;Temp;Humidity;BMP_temperature;BMP_pressure;BME280_temperature;BME280_humidity;BME280_pressure;Samples;Min_cycle;Max_cycle;Signal;HPM_P1;HPM_P2
2022/09/22 00:01:16;;;;;;;6.07;3.63;;;;;;;;;;5096068;28;20121;-72
2022/09/22 00:03:43;;;;;;;4.35;2.90;;;;;;;;;;5096278;28;20036;-71
2022/09/22 00:06:12;;;;;;;5.65;3.50;;;;;;;;;;5096292;28;20099;-72
2022/09/22 00:08:39;;;;;;;8.20;4.28;;;;;;;;;;5095831;28;20045;-72
2022/09/22 00:11:12;;;;;;;6.38;4.07;;;;;;;;;;5096169;28;20443;-69
2022/09/22 00:13:39;;;;;;;6.90;4.45;;;;;;;;;;5095775;28;20019;-72
2022/09/22 00:16:10;;;;;;;6.57;3.85;;;;;;;;;;5096095;28;20054;-71
2022/09/22 00:18:36;;;;;;;6.22;3.88;;;;;;;;;;5095996;28;20099;-71
2022/09/22 00:21:06;;;;;;;7.13;4.45;;;;;;;;;;5096038;28;20096;-71
2022/09/22 00:23:33;;;;;;;7.05;4.35;;;;;;;;;;5096232;28;20044;-71
2022/09/22 00:26:02;;;;;;;7.97;4.03;;;;;;;;;;5095937;28;20021;-71
2022/09/22 00:28:28;;;;;;;6.40;4.28;;;;;;;;;;5095511;28;20031;-71
2022/09/22 00:30:54;;;;;;;5.55;3.67;;;;;;;;;;5095815;28;20077;-72
2022/09/22 00:33:21;;;;;;;5.25;3.90;;;;;;;;;;5094433;28;20032;-69
2022/09/22 00:35:56;;;;;;;8.57;4.35;;;;;;;;;;5095407;28;20043;-72
2022/09/22 00:38:22;;;;;;;6.45;4.10;;;;;;;;;;5095578;28;20031;-72
2022/09/22 00:40:48;;;;;;;5.55;3.50;;;;;;;;;;5095494;28;20125;-72
2022/09/22 00:43:19;;;;;;;6.80;4.45;;;;;;;;;;5094972;28;20129;-69
2022/09/22 00:45:47;;;;;;;6.63;4.25;;;;;;;;;;5095499;28;20016;-72
2022/09/22 00:48:14;;;;;;;7.82;5.00;;;;;;;;;;5094244;28;20024;-72
2022/09/22 00:50:40;;;;;;;6.65;4.65;;;;;;;;;;5095126;28;20484;-72
2022/09/22 00:53:09;;;;;;;6.78;4.32;;;;;;;;;;5095379;28;20035;-71
2022/09/22 00:55:38;;;;;;;7.15;4.90;;;;;;;;;;5093889;28;20042;-72
2022/09/22 00:58:06;;;;;;;7.60;4.65;;;;;;;;;;5095230;28;20028;-69
2022/09/22 01:00:33;;;;;;;6.78;4.28;;;;;;;;;;5095197;28;20380;-69
2022/09/22 01:03:00;;;;;;;7.50;4.35;;;;;;;;;;5094703;28;20481;-72
2022/09/22 01:05:27;;;;;;;6.03;4.03;;;;;;;;;;5095062;28;20016;-71
2022/09/22 01:07:54;;;;;;;7.70;5.13;;;;;;;;;;5095036;28;20031;-72
2022/09/22 01:10:21;;;;;;;7.10;4.50;;;;;;;;;;5094754;28;20020;-72
2022/09/22 01:13:09;;;;;;;7.40;4.55;;;;;;;;;;5095210;28;20032;-69
2022/09/22 01:15:38;;;;;;;7.07;4.85;;;;;;;;;;5095028;28;20032;-69
2022/09/22 01:18:19;;;;;;;6.88;4.65;;;;;;;;;;5094606;28;20031;-71
2022/09/22 01:21:04;;;;;;;7.28;4.75;;;;;;;;;;5095103;28;20102;-72
2022/09/22 01:23:48;;;;;;;7.40;4.68;;;;;;;;;;5094948;28;20047;-72
2022/09/22 01:26:14;;;;;;;7.95;4.85;;;;;;;;;;5094716;28;20028;-71
2022/09/22 01:28:43;;;;;;;7.55;4.80;;;;;;;;;;5094700;28;20024;-71
2022/09/22 01:31:25;;;;;;;7.05;4.68;;;;;;;;;;5094226;28;20031;-72
2022/09/22 01:34:00;;;;;;;8.27;5.20;;;;;;;;;;5094568;28;20034;-72
2022/09/22 01:36:39;;;;;;;7.45;5.25;;;;;;;;;;5094092;28;20027;-72
2022/09/22 01:39:23;;;;;;;7.03;4.43;;;;;;;;;;5093519;28;20016;-72
2022/09/22 01:41:53;;;;;;;7.65;5.05;;;;;;;;;;5094246;28;20021;-68
2022/09/22 01:44:26;;;;;;;7.22;4.32;;;;;;;;;;5094382;28;20396;-71
2022/09/22 01:46:55;;;;;;;7.03;4.55;;;;;;;;;;5093995;28;20480;-71
2022/09/22 01:49:22;;;;;;;7.95;5.15;;;;;;;;;;5094254;28;20035;-71
2022/09/22 01:51:59;;;;;;;6.88;4.50;;;;;;;;;;5093714;28;20024;-71
2022/09/22 01:54:46;;;;;;;6.93;4.40;;;;;;;;;;5094673;28;20028;-72
2022/09/22 01:57:22;;;;;;;7.88;4.97;;;;;;;;;;5094089;28;20472;-72
2022/09/22 01:59:51;;;;;;;9.00;5.15;;;;;;;;;;5093824;28;20057;-72
2022/09/22 02:02:23;;;;;;;7.60;4.93;;;;;;;;;;5093988;28;20028;-71
2022/09/22 02:04:53;;;;;;;7.95;4.85;;;;;;;;;;5092757;28;20032;-71
2022/09/22 02:07:32;;;;;;;7.90;5.38;;;;;;;;;;5093729;28;20430;-72
2022/09/22 02:10:00;;;;;;;7.90;5.57;;;;;;;;;;5094160;28;20024;-72
2022/09/22 02:12:26;;;;;;;7.65;5.25;;;;;;;;;;5093957;28;20099;-71
2022/09/22 02:14:52;;;;;;;13.20;6.07;;;;;;;;;;5092206;28;20026;-71
2022/09/22 02:17:18;;;;;;;9.57;6.18;;;;;;;;;;5093869;28;20024;-72
2022/09/22 02:19:44;;;;;;;7.75;5.45;;;;;;;;;;5093755;28;20020;-72
2022/09/22 02:22:11;;;;;;;8.23;5.50;;;;;;;;;;5093312;28;20036;-72
2022/09/22 02:24:39;;;;;;;7.50;4.97;;;;;;;;;;5093867;28;20078;-71
2022/09/22 02:27:07;;;;;;;9.77;5.85;;;;;;;;;;5093274;28;20017;-71
2022/09/22 02:29:36;;;;;;;8.15;5.75;;;;;;;;;;5094260;28;20364;-72
2022/09/22 02:32:05;;;;;;;10.10;6.07;;;;;;;;;;5093686;28;20048;-72
2022/09/22 02:34:31;;;;;;;8.50;5.10;;;;;;;;;;5093452;28;20028;-69
2022/09/22 02:37:06;;;;;;;10.30;6.28;;;;;;;;;;5093607;28;20036;-72
2022/09/22 02:39:36;;;;;;;8.93;5.88;;;;;;;;;;5093721;28;20123;-70
2022/09/22 02:42:09;;;;;;;8.93;5.93;;;;;;;;;;5092898;28;20103;-69
2022/09/22 02:44:35;;;;;;;7.97;5.20;;;;;;;;;;5093538;28;20503;-70
2022/09/22 02:47:13;;;;;;;8.82;6.03;;;;;;;;;;5093445;28;20033;-70
2022/09/22 02:49:41;;;;;;;8.30;5.43;;;;;;;;;;5093168;28;20492;-69
2022/09/22 02:52:08;;;;;;;9.45;5.53;;;;;;;;;;5093710;28;20020;-70
2022/09/22 02:54:34;;;;;;;7.85;5.43;;;;;;;;;;5093446;28;20183;-70
2022/09/22 02:57:00;;;;;;;9.43;6.20;;;;;;;;;;5092952;28;20028;-71
2022/09/22 02:59:27;;;;;;;10.07;5.93;;;;;;;;;;5093410;28;20023;-71
2022/09/22 03:01:54;;;;;;;9.18;6.15;;;;;;;;;;5093359;28;20451;-71
2022/09/22 03:04:20;;;;;;;8.10;5.53;;;;;;;;;;5094105;28;20089;-70
2022/09/22 03:06:46;;;;;;;9.70;5.57;;;;;;;;;;5097443;28;20027;-70
2022/09/22 03:09:15;;;;;;;9.02;5.78;;;;;;;;;;5096974;28;20106;-70
2022/09/22 03:11:41;;;;;;;8.38;5.65;;;;;;;;;;5097290;28;20096;-71
2022/09/22 03:14:07;;;;;;;11.63;5.60;;;;;;;;;;5097263;28;20035;-70
2022/09/22 03:16:34;;;;;;;8.25;5.47;;;;;;;;;;5096871;28;20089;-71
2022/09/22 03:19:00;;;;;;;8.95;5.78;;;;;;;;;;5097296;28;20596;-70
2022/09/22 03:21:26;;;;;;;9.13;6.22;;;;;;;;;;5097165;28;20024;-70
2022/09/22 03:23:52;;;;;;;10.43;6.10;;;;;;;;;;5096901;28;20055;-71
2022/09/22 03:26:18;;;;;;;9.75;6.40;;;;;;;;;;5097071;28;20016;-70
2022/09/22 03:28:44;;;;;;;9.38;6.53;;;;;;;;;;5097044;28;20035;-70
2022/09/22 03:31:11;;;;;;;9.30;6.28;;;;;;;;;;5096665;28;20059;-71
2022/09/22 03:33:37;;;;;;;9.38;5.88;;;;;;;;;;5096871;28;20035;-71
2022/09/22 03:36:04;;;;;;;8.07;5.35;;;;;;;;;;5096927;28;20361;-71
2022/09/22 03:38:30;;;;;;;8.07;5.78;;;;;;;;;;5096378;28;20081;-71
2022/09/22 03:40:57;;;;;;;10.50;5.93;;;;;;;;;;5095492;28;20017;-71
2022/09/22 03:43:24;;;;;;;9.48;6.43;;;;;;;;;;5096490;28;20040;-71
2022/09/22 03:46:00;;;;;;;9.85;6.03;;;;;;;;;;5094937;28;20421;-71
2022/09/22 03:48:27;;;;;;;9.55;6.13;;;;;;;;;;5096916;28;20074;-70
2022/09/22 03:50:54;;;;;;;8.20;5.78;;;;;;;;;;5096610;28;20058;-71
2022/09/22 03:53:20;;;;;;;9.88;6.10;;;;;;;;;;5096156;28;20031;-71
2022/09/22 03:55:46;;;;;;;7.68;5.07;;;;;;;;;;5096632;28;20012;-71
2022/09/22 03:58:12;;;;;;;9.48;5.55;;;;;;;;;;5096827;28;20365;-71
2022/09/22 04:00:38;;;;;;;9.23;5.35;;;;;;;;;;5096332;28;20539;-71
2022/09/22 04:03:04;;;;;;;7.78;4.82;;;;;;;;;;5096290;28;20028;-71
2022/09/22 04:05:30;;;;;;;6.78;4.82;;;;;;;;;;5095930;28;20031;-70
2022/09/22 04:07:56;;;;;;;8.32;5.45;;;;;;;;;;5096272;28;20027;-71
2022/09/22 04:10:23;;;;;;;7.93;5.35;;;;;;;;;;5096351;28;20046;-71
2022/09/22 04:12:49;;;;;;;8.05;5.22;;;;;;;;;;5095821;28;20062;-71
2022/09/22 04:15:15;;;;;;;6.72;4.53;;;;;;;;;;5095685;28;20020;-71
2022/09/22 04:17:41;;;;;;;8.13;5.18;;;;;;;;;;5096118;28;20027;-71
2022/09/22 04:20:10;;;;;;;7.45;5.30;;;;;;;;;;5095687;28;20477;-71
2022/09/22 04:22:36;;;;;;;7.55;4.78;;;;;;;;;;5096072;28;20024;-70
2022/09/22 04:25:02;;;;;;;6.70;4.45;;;;;;;;;;5095998;28;20024;-70
2022/09/22 04:27:28;;;;;;;7.15;4.72;;;;;;;;;;5095694;28;20485;-70
2022/09/22 04:29:54;;;;;;;22.08;6.10;;;;;;;;;;5096156;28;20098;-71
2022/09/22 04:32:20;;;;;;;9.50;5.80;;;;;;;;;;5094517;28;20028;-70
2022/09/22 04:34:47;;;;;;;8.38;5.43;;;;;;;;;;5094031;28;20148;-71
2022/09/22 04:37:13;;;;;;;8.57;5.95;;;;;;;;;;5095645;28;20024;-71
2022/09/22 04:39:39;;;;;;;8.90;6.05;;;;;;;;;;5095501;28;20020;-71
2022/09/22 04:42:07;;;;;;;9.57;5.78;;;;;;;;;;5095103;28;20055;-70
2022/09/22 04:44:33;;;;;;;8.70;5.75;;;;;;;;;;5095663;28;20054;-70
2022/09/22 04:47:00;;;;;;;9.60;5.80;;;;;;;;;;5095029;28;20106;-70
2022/09/22 04:49:26;;;;;;;8.20;5.25;;;;;;;;;;5095050;28;20492;-71
2022/09/22 04:51:52;;;;;;;7.93;5.30;;;;;;;;;;5094021;28;20023;-71
2022/09/22 04:54:18;;;;;;;8.02;5.13;;;;;;;;;;5095462;28;20095;-72
2022/09/22 04:56:44;;;;;;;9.73;6.55;;;;;;;;;;5094912;28;20101;-71
2022/09/22 04:59:10;;;;;;;9.10;5.68;;;;;;;;;;5094016;28;20039;-71
2022/09/22 05:01:37;;;;;;;9.30;5.55;;;;;;;;;;5094259;28;20027;-71
2022/09/22 05:04:03;;;;;;;8.45;5.30;;;;;;;;;;5092667;28;20480;-71
2022/09/22 05:06:30;;;;;;;8.45;5.28;;;;;;;;;;5092962;28;20124;-71
2022/09/22 05:08:56;;;;;;;8.85;5.28;;;;;;;;;;5092649;28;20039;-71
2022/09/22 05:11:23;;;;;;;11.15;6.50;;;;;;;;;;5092734;28;20367;-71
2022/09/22 05:13:49;;;;;;;10.35;6.38;;;;;;;;;;5092582;28;20468;-71
2022/09/22 05:16:16;;;;;;;7.93;5.15;;;;;;;;;;5089087;28;20032;-73
2022/09/22 05:18:42;;;;;;;8.50;5.05;;;;;;;;;;5093526;28;20020;-74
2022/09/22 05:21:08;;;;;;;7.88;4.90;;;;;;;;;;5094123;28;20372;-74
2022/09/22 05:23:35;;;;;;;7.25;4.25;;;;;;;;;;5093844;28;20036;-74
2022/09/22 05:26:01;;;;;;;12.38;6.13;;;;;;;;;;5093261;28;20028;-73
2022/09/22 05:28:28;;;;;;;11.93;6.88;;;;;;;;;;5084217;28;20441;-74
2022/09/22 05:30:54;;;;;;;9.98;6.00;;;;;;;;;;5072555;28;20070;-76
2022/09/22 05:33:20;;;;;;;9.95;6.28;;;;;;;;;;5071519;28;20033;-74
2022/09/22 05:35:46;;;;;;;10.13;5.55;;;;;;;;;;5072069;28;20473;-78
2022/09/22 05:38:13;;;;;;;9.15;6.00;;;;;;;;;;5071214;28;20396;-76
2022/09/22 05:40:39;;;;;;;9.50;4.57;;;;;;;;;;5073383;28;20098;-74
2022/09/22 05:43:05;;;;;;;8.45;4.68;;;;;;;;;;5073314;28;20041;-74
2022/09/22 05:45:31;;;;;;;10.13;5.43;;;;;;;;;;5073384;28;20098;-70
2022/09/22 05:47:57;;;;;;;11.27;5.85;;;;;;;;;;5071923;28;20025;-70
2022/09/22 05:50:23;;;;;;;6.50;3.90;;;;;;;;;;5070679;28;20350;-70
2022/09/22 05:52:50;;;;;;;6.68;4.10;;;;;;;;;;5068590;28;20025;-71
2022/09/22 05:55:16;;;;;;;5.70;3.70;;;;;;;;;;5069672;28;20070;-71
2022/09/22 05:57:42;;;;;;;5.47;3.72;;;;;;;;;;5069352;28;20035;-70
2022/09/22 06:00:10;;;;;;;6.63;3.97;;;;;;;;;;5069001;28;20481;-71
2022/09/22 06:02:37;;;;;;;9.45;5.35;;;;;;;;;;5070218;28;20031;-72
2022/09/22 06:05:03;;;;;;;7.18;4.82;;;;;;;;;;5069814;28;20427;-71
2022/09/22 06:07:29;;;;;;;10.30;5.32;;;;;;;;;;5070417;28;20023;-71
2022/09/22 06:09:55;;;;;;;6.70;4.68;;;;;;;;;;5073121;28;20028;-71
2022/09/22 06:12:21;;;;;;;6.72;3.90;;;;;;;;;;5072481;28;20792;-72
2022/09/22 06:14:47;;;;;;;7.63;4.47;;;;;;;;;;5072563;28;20029;-72
2022/09/22 06:17:13;;;;;;;8.75;5.20;;;;;;;;;;5071810;28;20024;-71
2022/09/22 06:19:41;;;;;;;7.07;4.50;;;;;;;;;;5070419;28;20033;-78
2022/09/22 06:22:10;;;;;;;6.03;3.90;;;;;;;;;;5071621;28;20493;-75
2022/09/22 06:24:36;;;;;;;7.78;4.20;;;;;;;;;;5071324;28;20377;-75
2022/09/22 06:27:02;;;;;;;7.78;4.20;;;;;;;;;;5071502;28;20377;-75
2022/09/22 06:29:28;;;;;;;6.13;3.95;;;;;;;;;;5072145;28;20028;-73
2022/09/22 06:31:54;;;;;;;6.05;3.80;;;;;;;;;;5070588;28;20362;-76
2022/09/22 06:34:22;;;;;;;5.45;3.53;;;;;;;;;;5071926;28;20070;-75
2022/09/22 06:36:48;;;;;;;6.95;3.80;;;;;;;;;;5071489;28;20020;-74
2022/09/22 06:39:15;;;;;;;6.75;3.50;;;;;;;;;;5070989;28;20067;-75
2022/09/22 06:41:41;;;;;;;11.02;4.35;;;;;;;;;;5061050;28;20049;-74
2022/09/22 06:44:12;;;;;;;6.53;3.50;;;;;;;;;;5080714;28;20488;-74
2022/09/22 06:46:38;;;;;;;4.78;3.13;;;;;;;;;;5090569;28;20016;-75
2022/09/22 06:49:04;;;;;;;5.70;3.25;;;;;;;;;;5090798;28;20495;-75
2022/09/22 06:51:34;;;;;;;731.53;485.77;;;;;;;;;;5088210;28;20032;-76
2022/09/22 06:54:03;;;;;;;53.28;23.42;;;;;;;;;;5092152;28;20023;-77
2022/09/22 06:56:30;;;;;;;4.65;2.97;;;;;;;;;;5091528;28;20032;-78
2022/09/22 06:59:36;;;;;;;5.75;3.65;;;;;;;;;;5109832;27;20624;-73
2022/09/22 07:02:06;;;;;;;8.48;3.92;;;;;;;;;;5109176;28;20027;-77
2022/09/22 07:04:32;;;;;;;14.88;8.27;;;;;;;;;;5108475;28;20026;-76
2022/09/22 07:06:59;;;;;;;10.15;4.90;;;;;;;;;;5108196;28;20545;-76
2022/09/22 07:09:26;;;;;;;8.27;4.22;;;;;;;;;;5123261;28;20043;-75
2022/09/22 07:11:52;;;;;;;9.82;5.78;;;;;;;;;;5108106;28;20533;-76
2022/09/22 07:14:21;;;;;;;7.55;5.00;;;;;;;;;;5108299;28;20027;-75
2022/09/22 07:16:48;;;;;;;22.02;12.57;;;;;;;;;;5108654;28;20380;-76
2022/09/22 07:19:14;;;;;;;23.33;13.20;;;;;;;;;;5105847;28;20036;-76
2022/09/22 07:21:40;;;;;;;11.82;5.03;;;;;;;;;;5107001;28;20450;-76
2022/09/22 07:24:07;;;;;;;15.27;7.18;;;;;;;;;;5104278;28;20026;-76
2022/09/22 07:28:58;;;;;;;9.63;4.53;;;;;;;;;;5105940;27;20621;-77
2022/09/22 07:36:12;;;;;;;11.13;4.88;;;;;;;;;;5107873;27;20600;-76
2022/09/22 07:43:28;;;;;;;11.48;6.28;;;;;;;;;;5103192;27;20389;-76
2022/09/22 07:50:29;;;;;;;5.90;2.63;;;;;;;;;;5105756;28;20522;-78
2022/09/22 07:52:55;;;;;;;6.80;3.38;;;;;;;;;;5108989;28;20027;-79
2022/09/22 07:55:23;;;;;;;2.97;2.05;;;;;;;;;;5109486;28;20058;-79
2022/09/22 07:57:59;;;;;;;4.43;2.20;;;;;;;;;;5109232;28;20031;-77
2022/09/22 08:01:43;;;;;;;3.72;2.55;;;;;;;;;;5110767;27;20393;-75
2022/09/22 08:05:17;;;;;;;3.85;2.20;;;;;;;;;;5168059;27;20115;-76
2022/09/22 08:07:43;;;;;;;3.50;2.03;;;;;;;;;;5143421;27;20672;-76
2022/09/22 08:10:16;;;;;;;3.83;2.20;;;;;;;;;;5121986;27;20164;-75
2022/09/22 08:12:43;;;;;;;3.35;2.17;;;;;;;;;;5127689;28;20561;-78
2022/09/22 08:18:35;;;;;;;3.85;2.00;;;;;;;;;;5129484;27;20313;-76
2022/09/22 08:21:02;;;;;;;5.03;1.90;;;;;;;;;;5109543;28;20039;-76
2022/09/22 08:23:30;;;;;;;3.78;1.90;;;;;;;;;;5107662;28;20023;-75
2022/09/22 08:27:22;;;;;;;8.50;1.80;;;;;;;;;;5107673;27;20441;-75
2022/09/22 08:29:49;;;;;;;3.63;1.80;;;;;;;;;;5107036;28;20064;-74
2022/09/22 08:34:29;;;;;;;3.92;2.05;;;;;;;;;;5088272;27;20418;-75
2022/09/22 08:36:55;;;;;;;7.28;3.60;;;;;;;;;;5088562;28;20078;-75
2022/09/22 08:39:21;;;;;;;4.85;2.15;;;;;;;;;;5089295;28;20078;-75
2022/09/22 08:41:47;;;;;;;2.97;1.88;;;;;;;;;;5089383;28;20358;-73
2022/09/22 08:45:57;;;;;;;4.03;2.33;;;;;;;;;;5110471;27;20445;-74
2022/09/22 08:54:16;;;;;;;2.90;1.75;;;;;;;;;;5110314;27;20631;-75
2022/09/22 08:56:42;;;;;;;3.85;1.60;;;;;;;;;;5110143;28;20031;-75
2022/09/22 09:04:36;;;;;;;1.73;1.27;;;;;;;;;;5108145;27;20414;-75
2022/09/22 09:09:41;;;;;;;3.75;1.77;;;;;;;;;;5096012;27;20425;-79
2022/09/22 09:12:26;;;;;;;2.90;1.58;;;;;;;;;;5088621;28;20032;-78
2022/09/22 09:16:08;;;;;;;2.65;1.80;;;;;;;;;;5149640;27;20411;-78
2022/09/22 09:19:52;;;;;;;2.20;1.38;;;;;;;;;;5107939;27;20123;-75
2022/09/22 09:22:23;;;;;;;2.15;1.65;;;;;;;;;;5109321;28;20113;-77
2022/09/22 09:24:50;;;;;;;2.40;1.60;;;;;;;;;;5109310;28;20027;-78
2022/09/22 09:28:40;;;;;;;2.20;1.50;;;;;;;;;;5108376;27;20457;-79
2022/09/22 09:33:09;;;;;;;3.92;1.67;;;;;;;;;;5108192;27;20628;-77
2022/09/22 09:35:47;;;;;;;2.08;1.30;;;;;;;;;;5108492;28;20381;-78
2022/09/22 09:38:17;;;;;;;2.22;1.40;;;;;;;;;;5105384;28;20034;-82
2022/09/22 09:40:53;;;;;;;3.97;1.50;;;;;;;;;;5105446;28;20020;-76
2022/09/22 09:44:11;;;;;;;1.85;1.30;;;;;;;;;;5105938;27;20612;-77
2022/09/22 09:47:38;;;;;;;1.98;1.48;;;;;;;;;;5168950;27;20118;-73
2022/09/22 09:50:30;;;;;;;3.25;1.40;;;;;;;;;;5106799;27;20410;-77
2022/09/22 09:52:58;;;;;;;2.47;1.15;;;;;;;;;;5106712;28;20565;-76
2022/09/22 09:55:49;;;;;;;3.05;1.77;;;;;;;;;;5066287;28;20453;-72
2022/09/22 10:03:54;;;;;;;2.92;1.90;;;;;;;;;;5168508;27;20137;-77
2022/09/22 10:08:12;;;;;;;2.90;1.58;;;;;;;;;;5046786;28;20610;-74
2022/09/22 10:10:40;;;;;;;1.60;1.30;;;;;;;;;;5047171;28;20036;-69
2022/09/22 10:17:47;;;;;;;1.38;1.15;;;;;;;;;;5067570;28;20415;-67
2022/09/22 10:20:15;;;;;;;2.17;1.45;;;;;;;;;;5068062;28;20021;-67
2022/09/22 10:22:41;;;;;;;2.95;1.40;;;;;;;;;;5063432;28;20075;-67
2022/09/22 10:25:30;;;;;;;2.78;1.50;;;;;;;;;;5067562;28;20385;-62
2022/09/22 10:27:59;;;;;;;2.53;1.50;;;;;;;;;;5068779;28;20025;-63
2022/09/22 10:30:26;;;;;;;2.53;1.58;;;;;;;;;;5068109;28;20565;-63
2022/09/22 10:33:10;;;;;;;3.22;1.50;;;;;;;;;;5068992;28;20025;-63
2022/09/22 10:37:40;;;;;;;2.47;1.58;;;;;;;;;;5109871;27;20384;-63
2022/09/22 10:43:34;;;;;;;3.17;1.30;;;;;;;;;;5111020;27;20445;-62
2022/09/22 10:49:33;;;;;;;2.35;1.17;;;;;;;;;;5131507;27;20116;-62
2022/09/22 10:52:18;;;;;;;2.13;1.45;;;;;;;;;;5131204;28;20023;-62
2022/09/22 10:54:56;;;;;;;2.55;1.70;;;;;;;;;;5129411;28;20038;-62
2022/09/22 11:02:09;;;;;;;8.80;2.10;;;;;;;;;;5110411;27;20389;-62
2022/09/22 11:04:54;;;;;;;4.80;1.95;;;;;;;;;;5110885;28;20053;-64
2022/09/22 11:13:13;;;;;;;2.65;1.60;;;;;;;;;;5109929;28;20114;-64
2022/09/22 11:21:57;;;;;;;1.48;1.10;;;;;;;;;;5110165;27;21155;-62
2022/09/22 11:24:26;;;;;;;2.40;1.48;;;;;;;;;;5110822;28;20032;-65
2022/09/22 11:26:53;;;;;;;2.55;1.50;;;;;;;;;;5106107;28;20016;-65
2022/09/22 11:29:32;;;;;;;2.38;1.23;;;;;;;;;;5107199;28;20020;-62
2022/09/22 11:31:58;;;;;;;1.88;1.30;;;;;;;;;;5099103;28;20027;-64
2022/09/22 11:37:24;;;;;;;1.95;1.50;;;;;;;;;;5106468;27;20385;-65
2022/09/22 11:40:09;;;;;;;2.55;1.52;;;;;;;;;;5107506;28;20111;-62
2022/09/22 11:42:55;;;;;;;2.65;1.48;;;;;;;;;;5076494;28;20110;-62
2022/09/22 11:45:33;;;;;;;1.15;0.85;;;;;;;;;;5107393;28;20027;-65
2022/09/22 11:48:03;;;;;;;5.75;1.48;;;;;;;;;;5108862;28;20028;-64
2022/09/22 11:50:49;;;;;;;2.45;1.23;;;;;;;;;;5108309;27;20617;-62
2022/09/22 11:53:15;;;;;;;1.00;0.90;;;;;;;;;;5109386;28;20070;-63
2022/09/22 11:55:42;;;;;;;2.28;1.50;;;;;;;;;;5110695;28;20024;-65
2022/09/22 11:58:13;;;;;;;2.80;1.83;;;;;;;;;;5109122;28;20019;-63
2022/09/22 12:02:53;;;;;;;4.30;1.75;;;;;;;;;;5111136;27;20397;-63
2022/09/22 12:07:02;;;;;;;1.73;1.30;;;;;;;;;;5110581;27;20388;-61
2022/09/22 12:09:32;;;;;;;3.22;1.80;;;;;;;;;;5110990;28;20112;-62
2022/09/22 12:13:46;;;;;;;2.00;1.30;;;;;;;;;;5110994;27;20417;-63
2022/09/22 12:16:41;;;;;;;3.00;1.42;;;;;;;;;;5111244;27;20397;-66
2022/09/22 12:19:24;;;;;;;1.15;1.00;;;;;;;;;;5109437;28;20442;-68
2022/09/22 12:22:09;;;;;;;2.50;1.38;;;;;;;;;;5109305;28;20384;-68
2022/09/22 12:24:36;;;;;;;1.83;1.20;;;;;;;;;;5109607;28;20455;-67
2022/09/22 12:27:15;;;;;;;1.45;1.05;;;;;;;;;;5109642;28;20024;-65
2022/09/22 12:31:43;;;;;;;3.47;1.33;;;;;;;;;;5152339;27;20398;-68
2022/09/22 12:34:23;;;;;;;2.58;1.13;;;;;;;;;;5131373;28;20426;-66
2022/09/22 12:37:22;;;;;;;2.15;1.00;;;;;;;;;;5106769;27;20414;-64
2022/09/22 12:39:49;;;;;;;1.95;0.95;;;;;;;;;;5107107;28;20080;-64
2022/09/22 12:42:29;;;;;;;3.35;1.15;;;;;;;;;;5110339;28;20028;-68
2022/09/22 12:45:05;;;;;;;1.30;0.88;;;;;;;;;;5125721;28;20028;-68
2022/09/22 12:49:22;;;;;;;2.20;1.10;;;;;;;;;;5109775;27;20826;-67
2022/09/22 12:51:50;;;;;;;2.80;1.02;;;;;;;;;;5108190;28;20479;-68
2022/09/22 12:54:22;;;;;;;1.52;0.75;;;;;;;;;;5108375;28;20032;-67
2022/09/22 12:56:54;;;;;;;1.67;1.10;;;;;;;;;;5126507;28;20056;-68
2022/09/22 13:01:24;;;;;;;5.80;2.15;;;;;;;;;;5110553;27;20396;-69
2022/09/22 13:03:51;;;;;;;1.80;1.00;;;;;;;;;;5108386;28;20046;-69
2022/09/22 13:06:23;;;;;;;9.68;1.10;;;;;;;;;;5111022;28;20027;-68
2022/09/22 13:10:34;;;;;;;1.65;1.00;;;;;;;;;;5111168;27;20400;-68
2022/09/22 13:15:19;;;;;;;2.28;1.23;;;;;;;;;;5111430;27;20438;-67
2022/09/22 13:17:45;;;;;;;3.03;0.75;;;;;;;;;;5048710;28;20212;-67
2022/09/22 13:20:15;;;;;;;1.50;0.93;;;;;;;;;;5098660;28;20392;-67
2022/09/22 13:22:41;;;;;;;1.63;1.13;;;;;;;;;;5110847;28;20031;-67
2022/09/22 13:25:30;;;;;;;0.82;0.73;;;;;;;;;;5111202;28;20095;-67
2022/09/22 13:28:25;;;;;;;3.28;1.40;;;;;;;;;;5111088;28;20024;-67
2022/09/22 13:30:59;;;;;;;1.20;0.80;;;;;;;;;;5092685;28;20407;-67
2022/09/22 13:33:27;;;;;;;1.15;0.90;;;;;;;;;;5111208;28;20495;-67
2022/09/22 13:36:11;;;;;;;2.45;1.33;;;;;;;;;;5109489;28;20164;-67
2022/09/22 13:38:40;;;;;;;2.13;0.98;;;;;;;;;;5110882;28;20028;-67
2022/09/22 13:41:13;;;;;;;2.15;1.10;;;;;;;;;;5109480;28;20035;-67
2022/09/22 13:43:41;;;;;;;4.10;0.80;;;;;;;;;;5110507;28;20124;-67
2022/09/22 13:46:12;;;;;;;1.75;1.10;;;;;;;;;;5110780;28;20042;-67
2022/09/22 13:48:38;;;;;;;3.42;1.50;;;;;;;;;;5110904;28;20431;-67
2022/09/22 13:51:08;;;;;;;0.70;0.70;;;;;;;;;;5110348;28;20023;-67
2022/09/22 13:53:35;;;;;;;1.15;0.70;;;;;;;;;;5110538;28;20032;-67
2022/09/22 13:56:01;;;;;;;2.63;0.77;;;;;;;;;;5110813;28;20477;-67
2022/09/22 13:58:27;;;;;;;1.50;1.00;;;;;;;;;;5110014;28;20534;-67
2022/09/22 14:00:58;;;;;;;2.88;1.23;;;;;;;;;;5109175;28;20051;-67
2022/09/22 14:03:24;;;;;;;1.83;1.00;;;;;;;;;;5110254;28;20043;-67
2022/09/22 14:05:51;;;;;;;1.38;0.80;;;;;;;;;;5110412;28;20028;-67
2022/09/22 14:08:19;;;;;;;2.47;0.90;;;;;;;;;;5110365;28;20024;-67
2022/09/22 14:10:46;;;;;;;1.02;0.80;;;;;;;;;;5110175;28;20024;-67
2022/09/22 14:13:30;;;;;;;1.05;0.70;;;;;;;;;;5110054;28;20044;-67
2022/09/22 14:15:57;;;;;;;0.77;0.60;;;;;;;;;;5110307;28;20468;-67
2022/09/22 14:18:25;;;;;;;2.00;1.20;;;;;;;;;;5109794;28;20030;-67
2022/09/22 14:20:54;;;;;;;1.50;1.05;;;;;;;;;;5110337;28;20543;-67
2022/09/22 14:23:23;;;;;;;1.17;0.98;;;;;;;;;;5110121;28;20445;-67
2022/09/22 14:25:49;;;;;;;1.20;0.80;;;;;;;;;;5097232;28;20027;-67
2022/09/22 14:28:20;;;;;;;2.92;1.08;;;;;;;;;;5096415;28;20073;-67
2022/09/22 14:30:47;;;;;;;1.88;1.05;;;;;;;;;;5096477;28;20472;-67
2022/09/22 14:33:18;;;;;;;1.73;1.00;;;;;;;;;;5095922;28;20040;-67
2022/09/22 14:35:44;;;;;;;1.33;0.90;;;;;;;;;;5096403;28;20016;-67
2022/09/22 14:38:16;;;;;;;1.55;0.95;;;;;;;;;;5094919;28;20087;-67
2022/09/22 14:40:42;;;;;;;;;;;;;;;;;;5094994;28;20150;-67
2022/09/22 14:43:41;;;;;;;2.30;0.93;;;;;;;;;;5094864;28;20415;-67
2022/09/22 14:46:38;;;;;;;2.15;1.15;;;;;;;;;;5061879;28;20507;-67
2022/09/22 14:49:23;;;;;;;4.28;1.42;;;;;;;;;;5083399;28;20161;-67
2022/09/22 14:51:49;;;;;;;0.68;0.68;;;;;;;;;;5096024;28;20108;-67
2022/09/22 14:54:16;;;;;;;3.22;1.27;;;;;;;;;;5094147;28;20024;-67
2022/09/22 14:56:42;;;;;;;0.82;0.77;;;;;;;;;;5095873;28;20085;-67
2022/09/22 15:04:48;;;;;;;2.15;1.40;;;;;;;;;;5095864;28;20030;-68
2022/09/22 15:07:21;;;;;;;3.97;1.92;;;;;;;;;;5093910;28;20020;-66
2022/09/22 15:09:50;;;;;;;2.22;1.40;;;;;;;;;;5094355;28;20401;-66
2022/09/22 15:12:43;;;;;;;3.28;1.42;;;;;;;;;;5095278;28;20020;-66
2022/09/22 15:15:26;;;;;;;3.10;1.23;;;;;;;;;;5092526;28;20043;-66
2022/09/22 15:18:15;;;;;;;2.53;1.23;;;;;;;;;;5095830;28;20028;-67
2022/09/22 15:20:57;;;;;;;2.67;1.10;;;;;;;;;;5095283;28;20044;-68
2022/09/22 15:23:25;;;;;;;;;;;;;;;;;;5094510;28;20024;-68
2022/09/22 15:25:52;;;;;;;2.80;1.13;;;;;;;;;;5094063;28;20360;-67
2022/09/22 15:28:19;;;;;;;1.60;1.10;;;;;;;;;;5094879;28;20487;-68
2022/09/22 15:30:47;;;;;;;1.58;1.20;;;;;;;;;;5095325;28;20024;-67
2022/09/22 15:33:14;;;;;;;1.58;1.10;;;;;;;;;;5095473;28;20055;-67
2022/09/22 15:35:44;;;;;;;1.52;1.05;;;;;;;;;;5092985;28;20115;-67
2022/09/22 15:38:13;;;;;;;2.05;1.30;;;;;;;;;;5094661;28;20069;-67
2022/09/22 15:40:39;;;;;;;1.65;1.05;;;;;;;;;;5095058;28;20020;-68
2022/09/22 15:43:08;;;;;;;1.33;1.02;;;;;;;;;;5094616;28;20076;-68
2022/09/22 15:45:34;;;;;;;3.00;1.30;;;;;;;;;;5093644;28;20392;-68
2022/09/22 15:48:01;;;;;;;1.70;1.17;;;;;;;;;;5094885;28;20024;-67
2022/09/22 15:50:28;;;;;;;1.92;1.00;;;;;;;;;;5094363;28;20468;-68
2022/09/22 15:52:55;;;;;;;4.57;1.20;;;;;;;;;;5094677;28;20137;-67
2022/09/22 15:55:22;;;;;;;1.70;1.20;;;;;;;;;;5094777;28;20031;-67
2022/09/22 15:57:49;;;;;;;1.33;1.00;;;;;;;;;;5094320;28;20028;-67
2022/09/22 16:00:19;;;;;;;1.67;1.30;;;;;;;;;;5094646;28;20051;-67
2022/09/22 16:02:47;;;;;;;1.85;1.27;;;;;;;;;;5094619;28;20059;-67
2022/09/22 16:05:13;;;;;;;5.20;1.30;;;;;;;;;;5092831;28;20031;-67
2022/09/22 16:07:44;;;;;;;2.67;1.30;;;;;;;;;;5093202;28;20382;-67
2022/09/22 16:10:13;;;;;;;1.83;1.20;;;;;;;;;;5094108;28;20445;-67
2022/09/22 16:12:40;;;;;;;6.10;1.63;;;;;;;;;;5094216;28;20096;-67
2022/09/22 16:15:07;;;;;;;2.58;1.30;;;;;;;;;;5093036;28;20024;-67
2022/09/22 16:17:34;;;;;;;2.28;1.30;;;;;;;;;;5092673;28;20049;-67
2022/09/22 16:20:19;;;;;;;5.28;1.80;;;;;;;;;;5111899;27;20396;-65
2022/09/22 16:22:45;;;;;;;3.83;1.17;;;;;;;;;;5111393;28;20020;-68
2022/09/22 16:25:14;;;;;;;2.28;1.30;;;;;;;;;;5110960;28;20024;-68
2022/09/22 16:27:40;;;;;;;2.92;1.75;;;;;;;;;;5111378;28;20024;-68
2022/09/22 16:32:53;;;;;;;2.88;2.05;;;;;;;;;;5090722;27;20539;-65
2022/09/22 16:35:23;;;;;;;2.50;1.73;;;;;;;;;;5091391;28;20074;-67
2022/09/22 16:37:50;;;;;;;2.70;1.48;;;;;;;;;;5089601;28;20098;-66
2022/09/22 16:43:18;;;;;;;3.08;1.50;;;;;;;;;;5111520;27;20762;-68
2022/09/22 16:48:31;;;;;;;7.35;2.83;;;;;;;;;;5111580;28;20443;-68
2022/09/22 16:52:53;;;;;;;3.90;2.25;;;;;;;;;;5070801;28;20403;-67
2022/09/22 16:55:19;;;;;;;3.63;2.00;;;;;;;;;;5070793;28;20032;-67
2022/09/22 16:58:52;;;;;;;4.75;2.15;;;;;;;;;;5112131;27;20473;-67
2022/09/22 17:01:19;;;;;;;4.30;2.17;;;;;;;;;;5110889;28;20484;-68